sensor_id;sensor_type;location;lat;lon;timestamp;P1;durP1;ratioP1;P2;durP2;ratioP2
4420;SDS011;11824;51.178;13.546;2024-03-22T00:02:20;18.73;;;9.97;;
4420;SDS011;11824;51.178;13.546;2024-03-22T00:04:47;15.60;;;9.47;;
4420;SDS011;11824;51.178;13.546;2024-03-22T00:07:16;18.57;;;9.73;;
4420;SDS011;11824;51.178;13.546;2024-03-22T00:09:42;20.33;;;10.90;;
4420;SDS011;11824;51.178;13.546;2024-03-22T00:12:10;17.10;;;9.97;;
4420;SDS011;11824;51.178;13.546;2024-03-22T00:14:37;17.23;;;10.23;;
4420;SDS011;11824;51.178;13.546;2024-03-22T00:17:05;16.40;;;10.17;;
4420;SDS011;11824;51.178;13.546;2024-03-22T00:19:31;19.40;;;9.73;;
4420;SDS011;11824;51.178;13.546;2024-03-22T00:21:59;20.33;;;10.50;;
4420;SDS011;11824;51.178;13.546;2024-03-22T00:24:27;18.17;;;11.63;;
4420;SDS011;11824;51.178;13.546;2024-03-22T00:26:55;20.70;;;11.73;;
4420;SDS011;11824;51.178;13.546;2024-03-22T00:29:22;23.73;;;12.67;;
4420;SDS011;11824;51.178;13.546;2024-03-22T00:31:51;19.33;;;11.53;;
4420;SDS011;11824;51.178;13.546;2024-03-22T00:34:18;20.57;;;10.83;;
4420;SDS011;11824;51.178;13.546;2024-03-22T00:36:46;19.07;;;10.20;;
4420;SDS011;11824;51.178;13.546;2024-03-22T00:39:12;18.30;;;11.67;;
4420;SDS011;11824;51.178;13.546;2024-03-22T00:41:42;17.10;;;9.83;;
4420;SDS011;11824;51.178;13.546;2024-03-22T00:44:08;19.10;;;10.63;;
4420;SDS011;11824;51.178;13.546;2024-03-22T00:46:36;16.50;;;9.77;;
4420;SDS011;11824;51.178;13.546;2024-03-22T00:49:03;21.03;;;12.00;;
4420;SDS011;11824;51.178;13.546;2024-03-22T00:51:31;17.60;;;10.83;;
4420;SDS011;11824;51.178;13.546;2024-03-22T00:53:57;22.83;;;11.60;;
4420;SDS011;11824;51.178;13.546;2024-03-22T00:56:25;20.37;;;10.80;;
4420;SDS011;11824;51.178;13.546;2024-03-22T00:58:53;20.73;;;11.57;;
4420;SDS011;11824;51.178;13.546;2024-03-22T01:01:21;20.17;;;11.10;;
4420;SDS011;11824;51.178;13.546;2024-03-22T01:03:48;23.93;;;12.27;;
4420;SDS011;11824;51.178;13.546;2024-03-22T01:06:16;21.30;;;10.83;;
4420;SDS011;11824;51.178;13.546;2024-03-22T01:08:47;20.93;;;10.83;;
4420;SDS011;11824;51.178;13.546;2024-03-22T01:11:17;19.70;;;11.77;;
4420;SDS011;11824;51.178;13.546;2024-03-22T01:13:43;18.50;;;10.60;;
4420;SDS011;11824;51.178;13.546;2024-03-22T01:16:13;18.67;;;10.80;;
4420;SDS011;11824;51.178;13.546;2024-03-22T01:18:39;26.30;;;12.17;;
4420;SDS011;11824;51.178;13.546;2024-03-22T01:21:07;20.67;;;10.00;;
4420;SDS011;11824;51.178;13.546;2024-03-22T01:23:34;23.00;;;10.13;;
4420;SDS011;11824;51.178;13.546;2024-03-22T01:26:02;23.73;;;12.33;;
4420;SDS011;11824;51.178;13.546;2024-03-22T01:28:29;24.17;;;11.27;;
4420;SDS011;11824;51.178;13.546;2024-03-22T01:30:56;19.67;;;9.90;;
4420;SDS011;11824;51.178;13.546;2024-03-22T01:33:24;25.97;;;11.20;;
4420;SDS011;11824;51.178;13.546;2024-03-22T01:35:52;28.77;;;11.77;;
4420;SDS011;11824;51.178;13.546;2024-03-22T01:38:19;17.10;;;9.97;;
4420;SDS011;11824;51.178;13.546;2024-03-22T01:40:47;20.60;;;10.47;;
4420;SDS011;11824;51.178;13.546;2024-03-22T01:43:13;22.60;;;10.60;;
4420;SDS011;11824;51.178;13.546;2024-03-22T01:45:41;20.83;;;11.20;;
4420;SDS011;11824;51.178;13.546;2024-03-22T01:48:08;16.57;;;9.40;;
4420;SDS011;11824;51.178;13.546;2024-03-22T01:50:37;18.67;;;9.93;;
4420;SDS011;11824;51.178;13.546;2024-03-22T01:53:04;25.60;;;11.63;;
4420;SDS011;11824;51.178;13.546;2024-03-22T01:55:32;19.60;;;11.17;;
4420;SDS011;11824;51.178;13.546;2024-03-22T01:57:59;30.33;;;10.40;;
4420;SDS011;11824;51.178;13.546;2024-03-22T02:00:28;22.27;;;10.93;;
4420;SDS011;11824;51.178;13.546;2024-03-22T02:02:55;17.53;;;10.27;;
4420;SDS011;11824;51.178;13.546;2024-03-22T02:05:23;24.60;;;11.00;;
4420;SDS011;11824;51.178;13.546;2024-03-22T02:07:51;19.40;;;11.43;;
4420;SDS011;11824;51.178;13.546;2024-03-22T02:10:19;20.63;;;10.00;;
4420;SDS011;11824;51.178;13.546;2024-03-22T02:12:46;20.13;;;10.50;;
4420;SDS011;11824;51.178;13.546;2024-03-22T02:15:14;21.90;;;10.50;;
4420;SDS011;11824;51.178;13.546;2024-03-22T02:17:41;23.37;;;12.33;;
4420;SDS011;11824;51.178;13.546;2024-03-22T02:20:09;16.17;;;9.23;;
4420;SDS011;11824;51.178;13.546;2024-03-22T02:22:37;20.60;;;10.37;;
4420;SDS011;11824;51.178;13.546;2024-03-22T02:25:07;21.27;;;10.70;;
4420;SDS011;11824;51.178;13.546;2024-03-22T02:27:33;19.40;;;10.13;;
4420;SDS011;11824;51.178;13.546;2024-03-22T02:30:01;20.63;;;9.77;;
4420;SDS011;11824;51.178;13.546;2024-03-22T02:32:28;21.17;;;11.40;;
4420;SDS011;11824;51.178;13.546;2024-03-22T02:34:56;17.00;;;10.13;;
4420;SDS011;11824;51.178;13.546;2024-03-22T02:37:23;19.67;;;10.37;;
4420;SDS011;11824;51.178;13.546;2024-03-22T02:39:51;20.50;;;11.20;;
4420;SDS011;11824;51.178;13.546;2024-03-22T02:42:19;21.00;;;11.17;;
4420;SDS011;11824;51.178;13.546;2024-03-22T02:44:46;36.13;;;12.47;;
4420;SDS011;11824;51.178;13.546;2024-03-22T02:47:13;19.30;;;10.00;;
4420;SDS011;11824;51.178;13.546;2024-03-22T02:49:41;22.40;;;11.87;;
4420;SDS011;11824;51.178;13.546;2024-03-22T02:52:08;20.20;;;10.80;;
4420;SDS011;11824;51.178;13.546;2024-03-22T02:54:36;22.47;;;11.90;;
4420;SDS011;11824;51.178;13.546;2024-03-22T02:57:03;22.00;;;11.60;;
4420;SDS011;11824;51.178;13.546;2024-03-22T02:59:32;25.60;;;11.43;;
4420;SDS011;11824;51.178;13.546;2024-03-22T03:01:59;23.23;;;11.17;;
4420;SDS011;11824;51.178;13.546;2024-03-22T03:04:26;26.60;;;10.83;;
4420;SDS011;11824;51.178;13.546;2024-03-22T03:06:53;22.17;;;11.57;;
4420;SDS011;11824;51.178;13.546;2024-03-22T03:09:21;25.90;;;12.63;;
4420;SDS011;11824;51.178;13.546;2024-03-22T03:11:48;21.27;;;10.23;;
4420;SDS011;11824;51.178;13.546;2024-03-22T03:14:15;25.70;;;12.60;;
4420;SDS011;11824;51.178;13.546;2024-03-22T03:16:43;23.63;;;10.70;;
4420;SDS011;11824;51.178;13.546;2024-03-22T03:19:11;29.30;;;11.77;;
4420;SDS011;11824;51.178;13.546;2024-03-22T03:21:39;19.70;;;11.03;;
4420;SDS011;11824;51.178;13.546;2024-03-22T03:24:06;28.23;;;11.77;;
4420;SDS011;11824;51.178;13.546;2024-03-22T03:26:34;24.53;;;10.80;;
4420;SDS011;11824;51.178;13.546;2024-03-22T03:29:01;23.13;;;11.97;;
4420;SDS011;11824;51.178;13.546;2024-03-22T03:31:29;25.10;;;11.90;;
4420;SDS011;11824;51.178;13.546;2024-03-22T03:33:57;26.33;;;11.87;;
4420;SDS011;11824;51.178;13.546;2024-03-22T03:36:25;24.43;;;12.03;;
4420;SDS011;11824;51.178;13.546;2024-03-22T03:38:52;24.30;;;11.20;;
4420;SDS011;11824;51.178;13.546;2024-03-22T03:41:20;23.53;;;12.10;;
4420;SDS011;11824;51.178;13.546;2024-03-22T03:43:47;28.53;;;12.53;;
4420;SDS011;11824;51.178;13.546;2024-03-22T03:46:15;23.97;;;10.90;;
4420;SDS011;11824;51.178;13.546;2024-03-22T03:48:41;26.90;;;11.80;;
4420;SDS011;11824;51.178;13.546;2024-03-22T03:51:10;22.00;;;11.63;;
4420;SDS011;11824;51.178;13.546;2024-03-22T03:53:37;28.73;;;13.57;;
4420;SDS011;11824;51.178;13.546;2024-03-22T03:56:05;32.53;;;13.40;;
4420;SDS011;11824;51.178;13.546;2024-03-22T03:58:32;23.50;;;10.87;;
4420;SDS011;11824;51.178;13.546;2024-03-22T04:01:04;25.53;;;12.50;;
4420;SDS011;11824;51.178;13.546;2024-03-22T04:03:31;25.40;;;12.17;;
4420;SDS011;11824;51.178;13.546;2024-03-22T04:05:59;22.53;;;11.30;;
4420;SDS011;11824;51.178;13.546;2024-03-22T04:08:28;22.20;;;12.37;;
4420;SDS011;11824;51.178;13.546;2024-03-22T04:10:56;28.50;;;13.43;;
4420;SDS011;11824;51.178;13.546;2024-03-22T04:13:23;28.67;;;14.20;;
4420;SDS011;11824;51.178;13.546;2024-03-22T04:15:51;28.77;;;14.00;;
4420;SDS011;11824;51.178;13.546;2024-03-22T04:18:18;27.73;;;15.30;;
4420;SDS011;11824;51.178;13.546;2024-03-22T04:20:53;33.13;;;15.20;;
4420;SDS011;11824;51.178;13.546;2024-03-22T04:23:20;36.93;;;16.53;;
4420;SDS011;11824;51.178;13.546;2024-03-22T04:25:53;40.67;;;16.07;;
4420;SDS011;11824;51.178;13.546;2024-03-22T04:28:20;39.63;;;15.53;;
4420;SDS011;11824;51.178;13.546;2024-03-22T04:30:56;46.07;;;15.87;;
4420;SDS011;11824;51.178;13.546;2024-03-22T04:33:24;33.00;;;15.37;;
4420;SDS011;11824;51.178;13.546;2024-03-22T04:35:53;42.07;;;15.90;;
4420;SDS011;11824;51.178;13.546;2024-03-22T04:38:20;39.07;;;17.33;;
4420;SDS011;11824;51.178;13.546;2024-03-22T04:40:48;48.27;;;20.63;;
4420;SDS011;11824;51.178;13.546;2024-03-22T04:43:17;37.60;;;18.20;;
4420;SDS011;11824;51.178;13.546;2024-03-22T04:45:44;54.47;;;22.00;;
4420;SDS011;11824;51.178;13.546;2024-03-22T04:48:13;54.03;;;20.07;;
4420;SDS011;11824;51.178;13.546;2024-03-22T04:50:40;49.53;;;21.00;;
4420;SDS011;11824;51.178;13.546;2024-03-22T04:53:08;42.43;;;17.57;;
4420;SDS011;11824;51.178;13.546;2024-03-22T04:55:35;34.20;;;16.17;;
4420;SDS011;11824;51.178;13.546;2024-03-22T04:58:03;44.43;;;17.43;;
4420;SDS011;11824;51.178;13.546;2024-03-22T05:00:31;35.93;;;15.83;;
4420;SDS011;11824;51.178;13.546;2024-03-22T05:02:59;35.13;;;15.70;;
4420;SDS011;11824;51.178;13.546;2024-03-22T05:05:26;32.37;;;15.43;;
4420;SDS011;11824;51.178;13.546;2024-03-22T05:07:54;37.40;;;17.07;;
4420;SDS011;11824;51.178;13.546;2024-03-22T05:10:20;33.20;;;16.63;;
4420;SDS011;11824;51.178;13.546;2024-03-22T05:12:48;31.27;;;15.93;;
4420;SDS011;11824;51.178;13.546;2024-03-22T05:15:15;25.60;;;14.10;;
4420;SDS011;11824;51.178;13.546;2024-03-22T05:17:44;30.70;;;14.53;;
4420;SDS011;11824;51.178;13.546;2024-03-22T05:20:11;32.10;;;13.87;;
4420;SDS011;11824;51.178;13.546;2024-03-22T05:22:39;25.37;;;14.07;;
4420;SDS011;11824;51.178;13.546;2024-03-22T05:25:06;23.80;;;13.57;;
4420;SDS011;11824;51.178;13.546;2024-03-22T05:27:35;30.47;;;13.67;;
4420;SDS011;11824;51.178;13.546;2024-03-22T05:30:02;21.53;;;11.87;;
4420;SDS011;11824;51.178;13.546;2024-03-22T05:32:30;22.03;;;13.10;;
4420;SDS011;11824;51.178;13.546;2024-03-22T05:34:59;27.93;;;14.67;;
4420;SDS011;11824;51.178;13.546;2024-03-22T05:37:26;22.10;;;12.30;;
4420;SDS011;11824;51.178;13.546;2024-03-22T05:39:54;21.80;;;10.83;;
4420;SDS011;11824;51.178;13.546;2024-03-22T05:42:21;19.60;;;11.80;;
4420;SDS011;11824;51.178;13.546;2024-03-22T05:44:48;35.03;;;11.57;;
4420;SDS011;11824;51.178;13.546;2024-03-22T05:47:18;19.87;;;10.27;;
4420;SDS011;11824;51.178;13.546;2024-03-22T05:49:46;23.53;;;11.30;;
4420;SDS011;11824;51.178;13.546;2024-03-22T05:52:15;30.83;;;11.10;;
4420;SDS011;11824;51.178;13.546;2024-03-22T05:54:42;19.30;;;10.00;;
4420;SDS011;11824;51.178;13.546;2024-03-22T05:57:09;15.43;;;9.30;;
4420;SDS011;11824;51.178;13.546;2024-03-22T05:59:36;20.80;;;9.53;;
4420;SDS011;11824;51.178;13.546;2024-03-22T06:02:04;24.70;;;9.70;;
4420;SDS011;11824;51.178;13.546;2024-03-22T06:04:31;20.20;;;10.60;;
4420;SDS011;11824;51.178;13.546;2024-03-22T06:06:59;20.07;;;8.93;;
4420;SDS011;11824;51.178;13.546;2024-03-22T06:09:30;16.17;;;8.90;;
4420;SDS011;11824;51.178;13.546;2024-03-22T06:12:03;16.70;;;8.43;;
4420;SDS011;11824;51.178;13.546;2024-03-22T06:14:30;18.67;;;9.10;;
4420;SDS011;11824;51.178;13.546;2024-03-22T06:16:58;15.80;;;9.27;;
4420;SDS011;11824;51.178;13.546;2024-03-22T06:19:24;13.77;;;8.00;;
4420;SDS011;11824;51.178;13.546;2024-03-22T06:21:52;20.83;;;7.80;;
4420;SDS011;11824;51.178;13.546;2024-03-22T06:24:19;12.93;;;7.20;;
4420;SDS011;11824;51.178;13.546;2024-03-22T06:26:48;16.90;;;9.50;;
4420;SDS011;11824;51.178;13.546;2024-03-22T06:29:15;16.10;;;7.53;;
4420;SDS011;11824;51.178;13.546;2024-03-22T06:31:42;15.93;;;8.23;;
4420;SDS011;11824;51.178;13.546;2024-03-22T06:34:09;10.10;;;6.70;;
4420;SDS011;11824;51.178;13.546;2024-03-22T06:36:37;15.40;;;6.97;;
4420;SDS011;11824;51.178;13.546;2024-03-22T06:39:04;12.50;;;8.20;;
4420;SDS011;11824;51.178;13.546;2024-03-22T06:41:33;11.13;;;8.10;;
4420;SDS011;11824;51.178;13.546;2024-03-22T06:44:02;15.00;;;7.30;;
4420;SDS011;11824;51.178;13.546;2024-03-22T06:46:30;14.43;;;9.20;;
4420;SDS011;11824;51.178;13.546;2024-03-22T06:48:57;11.13;;;8.13;;
4420;SDS011;11824;51.178;13.546;2024-03-22T06:51:25;15.47;;;8.73;;
4420;SDS011;11824;51.178;13.546;2024-03-22T06:53:52;11.93;;;7.63;;
4420;SDS011;11824;51.178;13.546;2024-03-22T06:56:19;9.50;;;6.70;;
4420;SDS011;11824;51.178;13.546;2024-03-22T06:58:46;15.20;;;8.60;;
4420;SDS011;11824;51.178;13.546;2024-03-22T07:01:16;24.43;;;10.10;;
4420;SDS011;11824;51.178;13.546;2024-03-22T07:03:42;12.43;;;7.07;;
4420;SDS011;11824;51.178;13.546;2024-03-22T07:06:11;21.23;;;9.13;;
4420;SDS011;11824;51.178;13.546;2024-03-22T07:08:39;11.60;;;7.83;;
4420;SDS011;11824;51.178;13.546;2024-03-22T07:11:07;14.27;;;7.67;;
4420;SDS011;11824;51.178;13.546;2024-03-22T07:13:34;25.17;;;8.40;;
4420;SDS011;11824;51.178;13.546;2024-03-22T07:16:02;12.90;;;8.47;;
4420;SDS011;11824;51.178;13.546;2024-03-22T07:18:31;11.80;;;7.70;;
4420;SDS011;11824;51.178;13.546;2024-03-22T07:20:59;10.17;;;6.90;;
4420;SDS011;11824;51.178;13.546;2024-03-22T07:23:26;12.23;;;6.77;;
4420;SDS011;11824;51.178;13.546;2024-03-22T07:25:55;10.73;;;7.20;;
4420;SDS011;11824;51.178;13.546;2024-03-22T07:28:21;11.23;;;8.07;;
4420;SDS011;11824;51.178;13.546;2024-03-22T07:30:49;11.77;;;7.60;;
4420;SDS011;11824;51.178;13.546;2024-03-22T07:33:16;12.90;;;7.17;;
4420;SDS011;11824;51.178;13.546;2024-03-22T07:35:45;13.57;;;8.37;;
4420;SDS011;11824;51.178;13.546;2024-03-22T07:38:12;13.97;;;8.20;;
4420;SDS011;11824;51.178;13.546;2024-03-22T07:40:40;16.70;;;8.17;;
4420;SDS011;11824;51.178;13.546;2024-03-22T07:43:06;15.70;;;9.27;;
4420;SDS011;11824;51.178;13.546;2024-03-22T07:45:34;23.50;;;9.80;;
4420;SDS011;11824;51.178;13.546;2024-03-22T07:48:01;18.77;;;9.53;;
4420;SDS011;11824;51.178;13.546;2024-03-22T07:50:29;16.50;;;9.90;;
4420;SDS011;11824;51.178;13.546;2024-03-22T07:52:57;18.53;;;10.10;;
4420;SDS011;11824;51.178;13.546;2024-03-22T07:55:25;19.63;;;10.03;;
4420;SDS011;11824;51.178;13.546;2024-03-22T07:57:52;19.50;;;9.80;;
4420;SDS011;11824;51.178;13.546;2024-03-22T08:00:20;22.20;;;11.37;;
4420;SDS011;11824;51.178;13.546;2024-03-22T08:02:46;21.10;;;10.87;;
4420;SDS011;11824;51.178;13.546;2024-03-22T08:05:14;15.70;;;10.33;;
4420;SDS011;11824;51.178;13.546;2024-03-22T08:07:41;25.70;;;10.10;;
4420;SDS011;11824;51.178;13.546;2024-03-22T08:10:10;16.80;;;9.73;;
4420;SDS011;11824;51.178;13.546;2024-03-22T08:12:37;17.03;;;10.37;;
4420;SDS011;11824;51.178;13.546;2024-03-22T08:15:05;19.67;;;11.70;;
4420;SDS011;11824;51.178;13.546;2024-03-22T08:17:33;19.53;;;10.13;;
4420;SDS011;11824;51.178;13.546;2024-03-22T08:20:01;21.93;;;12.03;;
4420;SDS011;11824;51.178;13.546;2024-03-22T08:22:29;16.57;;;10.07;;
4420;SDS011;11824;51.178;13.546;2024-03-22T08:24:56;19.23;;;11.60;;
4420;SDS011;11824;51.178;13.546;2024-03-22T08:27:25;16.80;;;10.07;;
4420;SDS011;11824;51.178;13.546;2024-03-22T08:29:52;20.10;;;10.70;;
4420;SDS011;11824;51.178;13.546;2024-03-22T08:32:19;17.80;;;11.00;;
4420;SDS011;11824;51.178;13.546;2024-03-22T08:34:47;19.90;;;11.60;;
4420;SDS011;11824;51.178;13.546;2024-03-22T08:37:14;19.10;;;10.77;;
4420;SDS011;11824;51.178;13.546;2024-03-22T08:39:41;20.23;;;11.50;;
4420;SDS011;11824;51.178;13.546;2024-03-22T08:42:08;22.73;;;12.07;;
4420;SDS011;11824;51.178;13.546;2024-03-22T08:44:37;17.60;;;11.60;;
4420;SDS011;11824;51.178;13.546;2024-03-22T08:47:04;30.20;;;17.77;;
4420;SDS011;11824;51.178;13.546;2024-03-22T08:49:32;31.83;;;12.30;;
4420;SDS011;11824;51.178;13.546;2024-03-22T08:52:01;23.37;;;12.67;;
4420;SDS011;11824;51.178;13.546;2024-03-22T08:54:29;25.63;;;12.77;;
4420;SDS011;11824;51.178;13.546;2024-03-22T08:56:56;26.97;;;12.77;;
4420;SDS011;11824;51.178;13.546;2024-03-22T08:59:23;21.03;;;12.40;;
4420;SDS011;11824;51.178;13.546;2024-03-22T09:01:53;26.83;;;16.93;;
4420;SDS011;11824;51.178;13.546;2024-03-22T09:04:20;33.73;;;13.93;;
4420;SDS011;11824;51.178;13.546;2024-03-22T09:06:47;22.43;;;12.90;;
4420;SDS011;11824;51.178;13.546;2024-03-22T09:09:15;19.60;;;10.63;;
4420;SDS011;11824;51.178;13.546;2024-03-22T09:11:42;18.70;;;12.63;;
4420;SDS011;11824;51.178;13.546;2024-03-22T09:14:10;18.93;;;11.10;;
4420;SDS011;11824;51.178;13.546;2024-03-22T09:16:37;20.83;;;12.30;;
4420;SDS011;11824;51.178;13.546;2024-03-22T09:19:06;18.00;;;10.67;;
4420;SDS011;11824;51.178;13.546;2024-03-22T09:21:33;22.40;;;12.10;;
4420;SDS011;11824;51.178;13.546;2024-03-22T09:24:00;24.27;;;14.50;;
4420;SDS011;11824;51.178;13.546;2024-03-22T09:26:28;25.90;;;14.90;;
4420;SDS011;11824;51.178;13.546;2024-03-22T09:28:56;23.43;;;14.20;;
4420;SDS011;11824;51.178;13.546;2024-03-22T09:31:23;24.13;;;12.83;;
4420;SDS011;11824;51.178;13.546;2024-03-22T09:33:51;20.67;;;11.40;;
4420;SDS011;11824;51.178;13.546;2024-03-22T09:36:19;26.90;;;13.67;;
4420;SDS011;11824;51.178;13.546;2024-03-22T09:38:47;24.20;;;14.43;;
4420;SDS011;11824;51.178;13.546;2024-03-22T09:41:14;16.17;;;10.07;;
4420;SDS011;11824;51.178;13.546;2024-03-22T09:43:42;21.03;;;9.90;;
4420;SDS011;11824;51.178;13.546;2024-03-22T09:46:12;18.03;;;10.57;;
4420;SDS011;11824;51.178;13.546;2024-03-22T09:48:41;17.60;;;9.17;;
4420;SDS011;11824;51.178;13.546;2024-03-22T09:51:08;18.20;;;9.60;;
4420;SDS011;11824;51.178;13.546;2024-03-22T09:53:38;17.30;;;10.00;;
4420;SDS011;11824;51.178;13.546;2024-03-22T09:56:08;13.80;;;9.30;;
4420;SDS011;11824;51.178;13.546;2024-03-22T09:58:37;17.53;;;10.37;;
4420;SDS011;11824;51.178;13.546;2024-03-22T10:01:05;17.90;;;10.07;;
4420;SDS011;11824;51.178;13.546;2024-03-22T10:03:33;18.60;;;9.13;;
4420;SDS011;11824;51.178;13.546;2024-03-22T10:06:00;17.23;;;8.40;;
4420;SDS011;11824;51.178;13.546;2024-03-22T10:08:27;19.20;;;8.20;;
4420;SDS011;11824;51.178;13.546;2024-03-22T10:10:56;13.50;;;8.70;;
4420;SDS011;11824;51.178;13.546;2024-03-22T10:13:24;14.00;;;9.10;;
4420;SDS011;11824;51.178;13.546;2024-03-22T10:15:51;10.57;;;6.73;;
4420;SDS011;11824;51.178;13.546;2024-03-22T10:18:19;11.70;;;7.33;;
4420;SDS011;11824;51.178;13.546;2024-03-22T10:20:47;13.40;;;8.80;;
4420;SDS011;11824;51.178;13.546;2024-03-22T10:23:25;13.93;;;8.37;;
4420;SDS011;11824;51.178;13.546;2024-03-22T10:25:52;11.83;;;7.00;;
4420;SDS011;11824;51.178;13.546;2024-03-22T10:28:21;13.70;;;9.37;;
4420;SDS011;11824;51.178;13.546;2024-03-22T10:30:48;17.23;;;10.87;;
4420;SDS011;11824;51.178;13.546;2024-03-22T10:33:18;11.60;;;8.13;;
4420;SDS011;11824;51.178;13.546;2024-03-22T10:35:45;15.53;;;7.20;;
4420;SDS011;11824;51.178;13.546;2024-03-22T10:38:14;11.90;;;8.33;;
4420;SDS011;11824;51.178;13.546;2024-03-22T10:40:44;15.20;;;9.07;;
4420;SDS011;11824;51.178;13.546;2024-03-22T10:43:12;18.73;;;7.17;;
4420;SDS011;11824;51.178;13.546;2024-03-22T10:45:41;15.17;;;7.67;;
4420;SDS011;11824;51.178;13.546;2024-03-22T10:48:09;12.73;;;7.50;;
4420;SDS011;11824;51.178;13.546;2024-03-22T10:50:38;16.73;;;9.97;;
4420;SDS011;11824;51.178;13.546;2024-03-22T10:53:07;24.83;;;12.93;;
4420;SDS011;11824;51.178;13.546;2024-03-22T10:55:40;21.03;;;10.13;;
4420;SDS011;11824;51.178;13.546;2024-03-22T10:58:14;22.20;;;14.97;;
4420;SDS011;11824;51.178;13.546;2024-03-22T11:00:43;17.37;;;10.17;;
4420;SDS011;11824;51.178;13.546;2024-03-22T11:03:12;19.23;;;10.70;;
4420;SDS011;11824;51.178;13.546;2024-03-22T11:05:44;14.73;;;7.03;;
4420;SDS011;11824;51.178;13.546;2024-03-22T11:08:13;10.50;;;6.47;;
4420;SDS011;11824;51.178;13.546;2024-03-22T11:10:48;11.00;;;6.70;;
4420;SDS011;11824;51.178;13.546;2024-03-22T11:13:16;12.70;;;7.87;;
4420;SDS011;11824;51.178;13.546;2024-03-22T11:15:45;12.03;;;6.10;;
4420;SDS011;11824;51.178;13.546;2024-03-22T11:18:14;9.70;;;6.20;;
4420;SDS011;11824;51.178;13.546;2024-03-22T11:20:42;10.53;;;6.97;;
4420;SDS011;11824;51.178;13.546;2024-03-22T11:23:10;17.10;;;8.00;;
4420;SDS011;11824;51.178;13.546;2024-03-22T11:25:37;10.23;;;6.43;;
4420;SDS011;11824;51.178;13.546;2024-03-22T11:28:05;14.60;;;7.30;;
4420;SDS011;11824;51.178;13.546;2024-03-22T11:30:32;12.03;;;8.23;;
4420;SDS011;11824;51.178;13.546;2024-03-22T11:33:02;14.13;;;8.10;;
4420;SDS011;11824;51.178;13.546;2024-03-22T11:35:29;17.83;;;6.77;;
4420;SDS011;11824;51.178;13.546;2024-03-22T11:37:57;18.30;;;8.53;;
4420;SDS011;11824;51.178;13.546;2024-03-22T11:40:25;12.57;;;7.50;;
4420;SDS011;11824;51.178;13.546;2024-03-22T11:42:55;15.47;;;9.40;;
4420;SDS011;11824;51.178;13.546;2024-03-22T11:45:23;15.63;;;9.53;;
4420;SDS011;11824;51.178;13.546;2024-03-22T11:47:52;11.90;;;7.90;;
4420;SDS011;11824;51.178;13.546;2024-03-22T11:50:20;10.90;;;8.40;;
4420;SDS011;11824;51.178;13.546;2024-03-22T11:52:48;14.70;;;8.07;;
4420;SDS011;11824;51.178;13.546;2024-03-22T11:55:15;14.97;;;8.53;;
4420;SDS011;11824;51.178;13.546;2024-03-22T11:57:47;15.70;;;7.90;;
4420;SDS011;11824;51.178;13.546;2024-03-22T12:00:14;11.77;;;8.20;;
4420;SDS011;11824;51.178;13.546;2024-03-22T12:02:44;12.10;;;8.20;;
4420;SDS011;11824;51.178;13.546;2024-03-22T12:05:11;22.47;;;8.03;;
4420;SDS011;11824;51.178;13.546;2024-03-22T12:07:40;12.97;;;8.73;;
4420;SDS011;11824;51.178;13.546;2024-03-22T12:10:07;17.50;;;8.33;;
4420;SDS011;11824;51.178;13.546;2024-03-22T12:12:35;14.83;;;9.03;;
4420;SDS011;11824;51.178;13.546;2024-03-22T12:15:02;16.47;;;9.20;;
4420;SDS011;11824;51.178;13.546;2024-03-22T12:17:30;11.50;;;6.70;;
4420;SDS011;11824;51.178;13.546;2024-03-22T12:19:57;15.90;;;9.23;;
4420;SDS011;11824;51.178;13.546;2024-03-22T12:22:24;15.53;;;8.93;;
4420;SDS011;11824;51.178;13.546;2024-03-22T12:24:52;13.03;;;7.90;;
4420;SDS011;11824;51.178;13.546;2024-03-22T12:27:20;18.70;;;10.00;;
4420;SDS011;11824;51.178;13.546;2024-03-22T12:29:47;12.97;;;9.20;;
4420;SDS011;11824;51.178;13.546;2024-03-22T12:32:15;15.83;;;9.77;;
4420;SDS011;11824;51.178;13.546;2024-03-22T12:34:41;14.47;;;7.90;;
4420;SDS011;11824;51.178;13.546;2024-03-22T12:37:09;16.77;;;8.90;;
4420;SDS011;11824;51.178;13.546;2024-03-22T12:39:36;17.07;;;9.17;;
4420;SDS011;11824;51.178;13.546;2024-03-22T12:42:05;17.07;;;9.33;;
4420;SDS011;11824;51.178;13.546;2024-03-22T12:44:32;13.20;;;8.37;;
4420;SDS011;11824;51.178;13.546;2024-03-22T12:47:00;15.13;;;9.90;;
4420;SDS011;11824;51.178;13.546;2024-03-22T12:49:27;19.27;;;9.33;;
4420;SDS011;11824;51.178;13.546;2024-03-22T12:51:55;16.53;;;8.10;;
4420;SDS011;11824;51.178;13.546;2024-03-22T12:54:22;16.47;;;9.27;;
4420;SDS011;11824;51.178;13.546;2024-03-22T12:56:50;16.70;;;8.60;;
4420;SDS011;11824;51.178;13.546;2024-03-22T12:59:18;14.60;;;9.30;;
4420;SDS011;11824;51.178;13.546;2024-03-22T13:01:46;26.03;;;16.90;;
4420;SDS011;11824;51.178;13.546;2024-03-22T13:04:14;15.80;;;9.00;;
4420;SDS011;11824;51.178;13.546;2024-03-22T13:06:43;15.90;;;8.20;;
4420;SDS011;11824;51.178;13.546;2024-03-22T13:09:10;24.43;;;10.10;;
4420;SDS011;11824;51.178;13.546;2024-03-22T13:11:38;14.43;;;8.77;;
4420;SDS011;11824;51.178;13.546;2024-03-22T13:14:06;18.67;;;9.23;;
4420;SDS011;11824;51.178;13.546;2024-03-22T13:16:36;17.73;;;10.00;;
4420;SDS011;11824;51.178;13.546;2024-03-22T13:19:02;17.60;;;10.20;;
4420;SDS011;11824;51.178;13.546;2024-03-22T13:21:30;17.20;;;9.57;;
4420;SDS011;11824;51.178;13.546;2024-03-22T13:23:57;15.00;;;8.70;;
4420;SDS011;11824;51.178;13.546;2024-03-22T13:26:25;13.20;;;8.70;;
4420;SDS011;11824;51.178;13.546;2024-03-22T13:28:52;16.90;;;8.80;;
4420;SDS011;11824;51.178;13.546;2024-03-22T13:31:19;19.50;;;9.50;;
4420;SDS011;11824;51.178;13.546;2024-03-22T13:33:48;14.80;;;9.50;;
4420;SDS011;11824;51.178;13.546;2024-03-22T13:36:15;16.90;;;10.47;;
4420;SDS011;11824;51.178;13.546;2024-03-22T13:38:43;22.10;;;16.13;;
4420;SDS011;11824;51.178;13.546;2024-03-22T13:41:11;21.80;;;11.40;;
4420;SDS011;11824;51.178;13.546;2024-03-22T13:43:38;18.17;;;10.70;;
4420;SDS011;11824;51.178;13.546;2024-03-22T13:46:06;18.70;;;10.37;;
4420;SDS011;11824;51.178;13.546;2024-03-22T13:48:37;19.60;;;10.27;;
4420;SDS011;11824;51.178;13.546;2024-03-22T13:51:06;18.73;;;10.83;;
4420;SDS011;11824;51.178;13.546;2024-03-22T13:53:33;18.13;;;12.13;;
4420;SDS011;11824;51.178;13.546;2024-03-22T13:56:02;20.70;;;11.50;;
4420;SDS011;11824;51.178;13.546;2024-03-22T13:58:29;21.23;;;12.83;;
4420;SDS011;11824;51.178;13.546;2024-03-22T14:00:57;24.40;;;11.60;;
4420;SDS011;11824;51.178;13.546;2024-03-22T14:03:25;18.17;;;9.90;;
4420;SDS011;11824;51.178;13.546;2024-03-22T14:05:53;22.00;;;12.17;;
4420;SDS011;11824;51.178;13.546;2024-03-22T14:08:21;19.73;;;10.70;;
4420;SDS011;11824;51.178;13.546;2024-03-22T14:10:49;25.77;;;11.70;;
4420;SDS011;11824;51.178;13.546;2024-03-22T14:13:16;22.03;;;12.80;;
4420;SDS011;11824;51.178;13.546;2024-03-22T14:15:44;14.60;;;10.40;;
4420;SDS011;11824;51.178;13.546;2024-03-22T14:18:10;16.13;;;9.43;;
4420;SDS011;11824;51.178;13.546;2024-03-22T14:20:38;19.07;;;9.97;;
4420;SDS011;11824;51.178;13.546;2024-03-22T14:23:05;20.63;;;10.80;;
4420;SDS011;11824;51.178;13.546;2024-03-22T14:25:34;18.40;;;11.10;;
4420;SDS011;11824;51.178;13.546;2024-03-22T14:28:01;13.40;;;9.70;;
4420;SDS011;11824;51.178;13.546;2024-03-22T14:30:29;16.17;;;11.00;;